sensor_id;sensor_type;location;lat;lon;timestamp;P1;durP1;ratioP1;P2;durP2;ratioP2
16965;SDS011;8599;47.852;12.070;2023-06-14T00:02:17;6.73;;;3.10;;
16965;SDS011;8599;47.852;12.070;2023-06-14T00:04:45;3.73;;;3.13;;
16965;SDS011;8599;47.852;12.070;2023-06-14T00:07:13;9.37;;;3.17;;
16965;SDS011;8599;47.852;12.070;2023-06-14T00:09:41;5.03;;;3.03;;
16965;SDS011;8599;47.852;12.070;2023-06-14T00:12:08;3.70;;;2.60;;
16965;SDS011;8599;47.852;12.070;2023-06-14T00:14:35;4.93;;;3.00;;
16965;SDS011;8599;47.852;12.070;2023-06-14T00:17:02;7.00;;;3.10;;
16965;SDS011;8599;47.852;12.070;2023-06-14T00:19:29;3.23;;;2.70;;
16965;SDS011;8599;47.852;12.070;2023-06-14T00:21:59;4.03;;;2.90;;
16965;SDS011;8599;47.852;12.070;2023-06-14T00:24:26;3.13;;;2.63;;
16965;SDS011;8599;47.852;12.070;2023-06-14T00:26:52;3.93;;;3.20;;
16965;SDS011;8599;47.852;12.070;2023-06-14T00:29:20;3.83;;;3.13;;
16965;SDS011;8599;47.852;12.070;2023-06-14T00:31:47;5.40;;;3.00;;
16965;SDS011;8599;47.852;12.070;2023-06-14T00:34:13;6.53;;;3.10;;
16965;SDS011;8599;47.852;12.070;2023-06-14T00:36:40;8.93;;;3.07;;
16965;SDS011;8599;47.852;12.070;2023-06-14T00:39:10;4.23;;;3.20;;
16965;SDS011;8599;47.852;12.070;2023-06-14T00:41:37;5.93;;;3.20;;
16965;SDS011;8599;47.852;12.070;2023-06-14T00:44:05;3.60;;;2.70;;
16965;SDS011;8599;47.852;12.070;2023-06-14T00:46:32;5.77;;;3.03;;
16965;SDS011;8599;47.852;12.070;2023-06-14T00:48:59;13.10;;;3.50;;
16965;SDS011;8599;47.852;12.070;2023-06-14T00:51:27;8.10;;;2.90;;
16965;SDS011;8599;47.852;12.070;2023-06-14T00:53:54;7.33;;;3.17;;
16965;SDS011;8599;47.852;12.070;2023-06-14T00:56:22;4.23;;;3.10;;
16965;SDS011;8599;47.852;12.070;2023-06-14T00:58:49;5.37;;;3.17;;
16965;SDS011;8599;47.852;12.070;2023-06-14T01:01:17;4.53;;;3.43;;
16965;SDS011;8599;47.852;12.070;2023-06-14T01:03:43;4.27;;;2.90;;
16965;SDS011;8599;47.852;12.070;2023-06-14T01:06:13;3.57;;;3.07;;
16965;SDS011;8599;47.852;12.070;2023-06-14T01:08:54;3.00;;;2.70;;
16965;SDS011;8599;47.852;12.070;2023-06-14T01:11:28;5.97;;;3.20;;
16965;SDS011;8599;47.852;12.070;2023-06-14T01:13:59;5.93;;;3.60;;
16965;SDS011;8599;47.852;12.070;2023-06-14T01:16:28;3.90;;;3.07;;
16965;SDS011;8599;47.852;12.070;2023-06-14T01:18:56;10.53;;;3.40;;
16965;SDS011;8599;47.852;12.070;2023-06-14T01:21:23;4.87;;;3.23;;
16965;SDS011;8599;47.852;12.070;2023-06-14T01:23:52;8.47;;;3.60;;
16965;SDS011;8599;47.852;12.070;2023-06-14T01:26:19;5.40;;;3.70;;
16965;SDS011;8599;47.852;12.070;2023-06-14T01:28:46;4.20;;;3.20;;
16965;SDS011;8599;47.852;12.070;2023-06-14T01:31:16;9.07;;;3.50;;
16965;SDS011;8599;47.852;12.070;2023-06-14T01:33:44;5.53;;;2.97;;
16965;SDS011;8599;47.852;12.070;2023-06-14T01:36:11;5.60;;;3.13;;
16965;SDS011;8599;47.852;12.070;2023-06-14T01:38:39;5.27;;;3.43;;
16965;SDS011;8599;47.852;12.070;2023-06-14T01:41:10;7.00;;;3.60;;
16965;SDS011;8599;47.852;12.070;2023-06-14T01:43:38;3.67;;;2.80;;
16965;SDS011;8599;47.852;12.070;2023-06-14T01:46:07;6.40;;;3.40;;
16965;SDS011;8599;47.852;12.070;2023-06-14T01:48:35;5.97;;;3.27;;
16965;SDS011;8599;47.852;12.070;2023-06-14T01:51:02;10.67;;;3.70;;
16965;SDS011;8599;47.852;12.070;2023-06-14T01:53:30;4.60;;;3.10;;
16965;SDS011;8599;47.852;12.070;2023-06-14T01:55:56;8.67;;;3.47;;
16965;SDS011;8599;47.852;12.070;2023-06-14T01:58:25;4.37;;;3.43;;
16965;SDS011;8599;47.852;12.070;2023-06-14T02:00:52;6.87;;;3.63;;
16965;SDS011;8599;47.852;12.070;2023-06-14T02:03:21;5.73;;;3.30;;
16965;SDS011;8599;47.852;12.070;2023-06-14T02:05:50;4.90;;;3.17;;
16965;SDS011;8599;47.852;12.070;2023-06-14T02:08:16;9.90;;;3.47;;
16965;SDS011;8599;47.852;12.070;2023-06-14T02:10:43;6.70;;;2.93;;
16965;SDS011;8599;47.852;12.070;2023-06-14T02:13:10;6.13;;;3.30;;
16965;SDS011;8599;47.852;12.070;2023-06-14T02:15:38;8.03;;;3.57;;
16965;SDS011;8599;47.852;12.070;2023-06-14T02:18:05;9.10;;;3.20;;
16965;SDS011;8599;47.852;12.070;2023-06-14T02:20:33;4.13;;;3.23;;
16965;SDS011;8599;47.852;12.070;2023-06-14T02:23:00;5.70;;;3.43;;
16965;SDS011;8599;47.852;12.070;2023-06-14T02:25:27;4.67;;;3.50;;
16965;SDS011;8599;47.852;12.070;2023-06-14T02:27:54;3.57;;;2.97;;
16965;SDS011;8599;47.852;12.070;2023-06-14T02:30:21;7.33;;;3.20;;
16965;SDS011;8599;47.852;12.070;2023-06-14T02:32:49;6.00;;;3.07;;
16965;SDS011;8599;47.852;12.070;2023-06-14T02:35:18;4.93;;;3.47;;
16965;SDS011;8599;47.852;12.070;2023-06-14T02:37:45;5.43;;;3.40;;
16965;SDS011;8599;47.852;12.070;2023-06-14T02:40:12;4.10;;;3.27;;
16965;SDS011;8599;47.852;12.070;2023-06-14T02:42:39;9.30;;;3.40;;
16965;SDS011;8599;47.852;12.070;2023-06-14T02:45:06;4.80;;;3.30;;
16965;SDS011;8599;47.852;12.070;2023-06-14T02:47:34;5.10;;;3.23;;
16965;SDS011;8599;47.852;12.070;2023-06-14T02:50:02;5.90;;;2.93;;
16965;SDS011;8599;47.852;12.070;2023-06-14T02:52:29;3.87;;;3.27;;
16965;SDS011;8599;47.852;12.070;2023-06-14T02:54:58;3.67;;;3.03;;
16965;SDS011;8599;47.852;12.070;2023-06-14T02:57:25;5.37;;;3.40;;
16965;SDS011;8599;47.852;12.070;2023-06-14T02:59:52;6.37;;;3.70;;
16965;SDS011;8599;47.852;12.070;2023-06-14T03:02:18;6.47;;;3.67;;
16965;SDS011;8599;47.852;12.070;2023-06-14T03:04:45;6.67;;;3.40;;
16965;SDS011;8599;47.852;12.070;2023-06-14T03:07:13;6.40;;;3.00;;
16965;SDS011;8599;47.852;12.070;2023-06-14T03:09:44;5.10;;;3.30;;
16965;SDS011;8599;47.852;12.070;2023-06-14T03:12:12;3.93;;;2.80;;
16965;SDS011;8599;47.852;12.070;2023-06-14T03:14:40;3.43;;;3.00;;
16965;SDS011;8599;47.852;12.070;2023-06-14T03:17:07;5.47;;;3.03;;
16965;SDS011;8599;47.852;12.070;2023-06-14T03:19:34;7.90;;;3.33;;
16965;SDS011;8599;47.852;12.070;2023-06-14T03:22:01;5.17;;;3.60;;
16965;SDS011;8599;47.852;12.070;2023-06-14T03:24:29;6.53;;;3.13;;
16965;SDS011;8599;47.852;12.070;2023-06-14T03:27:01;6.07;;;3.10;;
16965;SDS011;8599;47.852;12.070;2023-06-14T03:29:28;5.53;;;3.10;;
16965;SDS011;8599;47.852;12.070;2023-06-14T03:31:56;5.13;;;3.50;;
16965;SDS011;8599;47.852;12.070;2023-06-14T03:34:24;4.70;;;3.40;;
16965;SDS011;8599;47.852;12.070;2023-06-14T03:36:51;8.53;;;3.63;;
16965;SDS011;8599;47.852;12.070;2023-06-14T03:39:18;7.73;;;3.77;;
16965;SDS011;8599;47.852;12.070;2023-06-14T03:41:46;3.80;;;3.03;;
16965;SDS011;8599;47.852;12.070;2023-06-14T03:44:14;6.30;;;3.50;;
16965;SDS011;8599;47.852;12.070;2023-06-14T03:46:42;7.87;;;3.50;;
16965;SDS011;8599;47.852;12.070;2023-06-14T03:49:10;5.70;;;3.70;;
16965;SDS011;8599;47.852;12.070;2023-06-14T03:51:37;6.17;;;3.13;;
16965;SDS011;8599;47.852;12.070;2023-06-14T03:54:04;5.87;;;3.03;;
16965;SDS011;8599;47.852;12.070;2023-06-14T03:56:31;5.00;;;3.40;;
16965;SDS011;8599;47.852;12.070;2023-06-14T03:58:59;7.40;;;3.70;;
16965;SDS011;8599;47.852;12.070;2023-06-14T04:01:26;9.17;;;3.60;;
16965;SDS011;8599;47.852;12.070;2023-06-14T04:03:55;4.47;;;3.43;;
16965;SDS011;8599;47.852;12.070;2023-06-14T04:06:22;7.63;;;3.40;;
16965;SDS011;8599;47.852;12.070;2023-06-14T04:08:50;5.80;;;3.23;;
16965;SDS011;8599;47.852;12.070;2023-06-14T04:11:17;6.00;;;3.03;;
16965;SDS011;8599;47.852;12.070;2023-06-14T04:13:44;9.60;;;3.40;;
16965;SDS011;8599;47.852;12.070;2023-06-14T04:16:13;7.63;;;3.37;;
16965;SDS011;8599;47.852;12.070;2023-06-14T04:18:40;8.67;;;3.30;;
16965;SDS011;8599;47.852;12.070;2023-06-14T04:21:07;16.37;;;3.67;;
16965;SDS011;8599;47.852;12.070;2023-06-14T04:23:34;7.27;;;3.13;;
16965;SDS011;8599;47.852;12.070;2023-06-14T04:26:01;4.67;;;3.43;;
16965;SDS011;8599;47.852;12.070;2023-06-14T04:28:28;8.10;;;3.50;;
16965;SDS011;8599;47.852;12.070;2023-06-14T04:30:55;4.93;;;3.70;;
16965;SDS011;8599;47.852;12.070;2023-06-14T04:33:23;5.43;;;3.33;;
16965;SDS011;8599;47.852;12.070;2023-06-14T04:35:50;4.83;;;3.57;;
16965;SDS011;8599;47.852;12.070;2023-06-14T04:38:19;5.17;;;3.03;;
16965;SDS011;8599;47.852;12.070;2023-06-14T04:40:50;7.03;;;3.77;;
16965;SDS011;8599;47.852;12.070;2023-06-14T04:43:18;8.70;;;3.57;;
16965;SDS011;8599;47.852;12.070;2023-06-14T04:45:50;5.63;;;3.00;;
16965;SDS011;8599;47.852;12.070;2023-06-14T04:48:16;5.70;;;3.50;;
16965;SDS011;8599;47.852;12.070;2023-06-14T04:50:45;4.30;;;3.30;;
16965;SDS011;8599;47.852;12.070;2023-06-14T04:53:13;6.27;;;3.07;;
16965;SDS011;8599;47.852;12.070;2023-06-14T04:55:39;4.87;;;2.90;;
16965;SDS011;8599;47.852;12.070;2023-06-14T04:58:10;8.10;;;2.93;;
16965;SDS011;8599;47.852;12.070;2023-06-14T05:00:37;3.90;;;3.00;;
16965;SDS011;8599;47.852;12.070;2023-06-14T05:03:04;4.73;;;3.00;;
16965;SDS011;8599;47.852;12.070;2023-06-14T05:05:31;8.90;;;3.07;;
16965;SDS011;8599;47.852;12.070;2023-06-14T05:08:03;5.30;;;3.50;;
16965;SDS011;8599;47.852;12.070;2023-06-14T05:10:33;3.40;;;2.60;;
16965;SDS011;8599;47.852;12.070;2023-06-14T05:13:01;3.40;;;2.50;;
16965;SDS011;8599;47.852;12.070;2023-06-14T05:15:28;7.37;;;3.43;;
16965;SDS011;8599;47.852;12.070;2023-06-14T05:17:55;6.13;;;3.63;;
16965;SDS011;8599;47.852;12.070;2023-06-14T05:20:22;7.83;;;4.40;;
16965;SDS011;8599;47.852;12.070;2023-06-14T05:22:50;9.80;;;3.67;;
16965;SDS011;8599;47.852;12.070;2023-06-14T05:25:19;8.23;;;3.20;;
16965;SDS011;8599;47.852;12.070;2023-06-14T05:27:46;10.70;;;3.10;;
16965;SDS011;8599;47.852;12.070;2023-06-14T05:30:13;13.50;;;4.00;;
16965;SDS011;8599;47.852;12.070;2023-06-14T05:32:41;10.40;;;3.00;;
16965;SDS011;8599;47.852;12.070;2023-06-14T05:35:08;7.63;;;3.43;;
16965;SDS011;8599;47.852;12.070;2023-06-14T05:37:35;3.90;;;3.17;;
16965;SDS011;8599;47.852;12.070;2023-06-14T05:40:02;4.70;;;3.10;;
16965;SDS011;8599;47.852;12.070;2023-06-14T05:42:32;5.47;;;3.33;;
16965;SDS011;8599;47.852;12.070;2023-06-14T05:44:59;7.03;;;3.30;;
16965;SDS011;8599;47.852;12.070;2023-06-14T05:47:26;4.03;;;3.20;;
16965;SDS011;8599;47.852;12.070;2023-06-14T05:49:53;7.37;;;3.50;;
16965;SDS011;8599;47.852;12.070;2023-06-14T05:52:20;7.97;;;3.53;;
16965;SDS011;8599;47.852;12.070;2023-06-14T05:54:47;4.20;;;3.00;;
16965;SDS011;8599;47.852;12.070;2023-06-14T05:57:14;4.67;;;3.20;;
16965;SDS011;8599;47.852;12.070;2023-06-14T05:59:43;5.07;;;3.03;;
16965;SDS011;8599;47.852;12.070;2023-06-14T06:02:10;5.37;;;3.10;;
16965;SDS011;8599;47.852;12.070;2023-06-14T06:04:36;7.87;;;3.20;;
16965;SDS011;8599;47.852;12.070;2023-06-14T06:07:03;6.57;;;3.10;;
16965;SDS011;8599;47.852;12.070;2023-06-14T06:09:30;3.73;;;2.70;;
16965;SDS011;8599;47.852;12.070;2023-06-14T06:11:58;4.43;;;3.30;;
16965;SDS011;8599;47.852;12.070;2023-06-14T06:14:25;4.50;;;2.70;;
16965;SDS011;8599;47.852;12.070;2023-06-14T06:16:53;7.83;;;3.43;;
16965;SDS011;8599;47.852;12.070;2023-06-14T06:19:20;5.03;;;3.33;;
16965;SDS011;8599;47.852;12.070;2023-06-14T06:21:47;5.80;;;3.50;;
16965;SDS011;8599;47.852;12.070;2023-06-14T06:24:14;4.70;;;3.20;;
16965;SDS011;8599;47.852;12.070;2023-06-14T06:26:41;9.33;;;3.37;;
16965;SDS011;8599;47.852;12.070;2023-06-14T06:29:08;7.43;;;3.60;;
16965;SDS011;8599;47.852;12.070;2023-06-14T06:31:36;5.77;;;3.70;;
16965;SDS011;8599;47.852;12.070;2023-06-14T06:34:04;4.30;;;3.13;;
16965;SDS011;8599;47.852;12.070;2023-06-14T06:36:31;6.83;;;3.13;;
16965;SDS011;8599;47.852;12.070;2023-06-14T06:38:58;6.33;;;3.30;;
16965;SDS011;8599;47.852;12.070;2023-06-14T06:41:25;5.37;;;3.03;;
16965;SDS011;8599;47.852;12.070;2023-06-14T06:43:51;4.80;;;3.07;;
16965;SDS011;8599;47.852;12.070;2023-06-14T06:46:18;5.03;;;3.33;;
16965;SDS011;8599;47.852;12.070;2023-06-14T06:48:45;5.57;;;3.63;;
16965;SDS011;8599;47.852;12.070;2023-06-14T06:51:13;6.13;;;2.90;;
16965;SDS011;8599;47.852;12.070;2023-06-14T06:53:41;9.80;;;3.10;;
16965;SDS011;8599;47.852;12.070;2023-06-14T06:56:09;13.87;;;3.50;;
16965;SDS011;8599;47.852;12.070;2023-06-14T06:58:35;3.40;;;3.10;;
16965;SDS011;8599;47.852;12.070;2023-06-14T07:01:02;6.00;;;3.47;;
16965;SDS011;8599;47.852;12.070;2023-06-14T07:03:29;9.27;;;3.60;;
16965;SDS011;8599;47.852;12.070;2023-06-14T07:05:56;5.60;;;3.13;;
16965;SDS011;8599;47.852;12.070;2023-06-14T07:08:24;4.57;;;3.50;;
16965;SDS011;8599;47.852;12.070;2023-06-14T07:10:51;4.57;;;3.30;;
16965;SDS011;8599;47.852;12.070;2023-06-14T07:13:18;8.80;;;3.23;;
16965;SDS011;8599;47.852;12.070;2023-06-14T07:15:45;7.80;;;3.30;;
16965;SDS011;8599;47.852;12.070;2023-06-14T07:18:12;7.63;;;3.47;;
16965;SDS011;8599;47.852;12.070;2023-06-14T07:20:39;3.73;;;2.93;;
16965;SDS011;8599;47.852;12.070;2023-06-14T07:23:06;7.00;;;3.77;;
16965;SDS011;8599;47.852;12.070;2023-06-14T07:25:34;6.67;;;3.20;;
16965;SDS011;8599;47.852;12.070;2023-06-14T07:28:01;6.13;;;3.20;;
16965;SDS011;8599;47.852;12.070;2023-06-14T07:30:28;3.87;;;2.83;;
16965;SDS011;8599;47.852;12.070;2023-06-14T07:32:55;6.37;;;3.63;;
16965;SDS011;8599;47.852;12.070;2023-06-14T07:35:22;6.63;;;3.17;;
16965;SDS011;8599;47.852;12.070;2023-06-14T07:37:49;6.03;;;3.13;;
16965;SDS011;8599;47.852;12.070;2023-06-14T07:40:15;4.47;;;3.27;;
16965;SDS011;8599;47.852;12.070;2023-06-14T07:42:44;8.47;;;3.37;;
16965;SDS011;8599;47.852;12.070;2023-06-14T07:45:12;5.30;;;3.37;;
16965;SDS011;8599;47.852;12.070;2023-06-14T07:47:39;4.57;;;3.20;;
16965;SDS011;8599;47.852;12.070;2023-06-14T07:50:06;4.07;;;3.30;;
16965;SDS011;8599;47.852;12.070;2023-06-14T07:52:34;10.20;;;3.17;;
16965;SDS011;8599;47.852;12.070;2023-06-14T07:55:01;5.33;;;3.10;;
16965;SDS011;8599;47.852;12.070;2023-06-14T07:57:27;10.73;;;3.13;;
16965;SDS011;8599;47.852;12.070;2023-06-14T07:59:56;4.33;;;3.07;;
16965;SDS011;8599;47.852;12.070;2023-06-14T08:02:22;4.33;;;3.50;;
16965;SDS011;8599;47.852;12.070;2023-06-14T08:04:49;5.13;;;3.40;;
16965;SDS011;8599;47.852;12.070;2023-06-14T08:07:16;3.77;;;3.20;;
16965;SDS011;8599;47.852;12.070;2023-06-14T08:09:43;4.40;;;3.17;;
16965;SDS011;8599;47.852;12.070;2023-06-14T08:12:09;6.67;;;3.43;;
16965;SDS011;8599;47.852;12.070;2023-06-14T08:14:36;7.80;;;3.23;;
16965;SDS011;8599;47.852;12.070;2023-06-14T08:17:05;5.17;;;3.30;;
16965;SDS011;8599;47.852;12.070;2023-06-14T08:19:32;6.57;;;3.67;;
16965;SDS011;8599;47.852;12.070;2023-06-14T08:21:58;5.07;;;3.53;;
16965;SDS011;8599;47.852;12.070;2023-06-14T08:24:26;7.73;;;3.60;;
16965;SDS011;8599;47.852;12.070;2023-06-14T08:26:53;8.67;;;3.57;;
16965;SDS011;8599;47.852;12.070;2023-06-14T08:29:20;5.30;;;2.87;;
16965;SDS011;8599;47.852;12.070;2023-06-14T08:31:46;8.67;;;3.60;;
16965;SDS011;8599;47.852;12.070;2023-06-14T08:34:17;7.30;;;3.30;;
16965;SDS011;8599;47.852;12.070;2023-06-14T08:36:44;5.90;;;3.30;;
16965;SDS011;8599;47.852;12.070;2023-06-14T08:39:11;4.13;;;3.10;;
16965;SDS011;8599;47.852;12.070;2023-06-14T08:41:38;7.47;;;3.47;;
16965;SDS011;8599;47.852;12.070;2023-06-14T08:44:05;5.13;;;3.40;;
16965;SDS011;8599;47.852;12.070;2023-06-14T08:46:32;5.27;;;3.20;;
16965;SDS011;8599;47.852;12.070;2023-06-14T08:49:00;7.93;;;4.23;;
16965;SDS011;8599;47.852;12.070;2023-06-14T08:51:29;6.50;;;3.33;;
16965;SDS011;8599;47.852;12.070;2023-06-14T08:53:59;5.43;;;3.50;;
16965;SDS011;8599;47.852;12.070;2023-06-14T08:56:29;5.27;;;3.37;;
16965;SDS011;8599;47.852;12.070;2023-06-14T08:58:56;8.47;;;3.30;;
16965;SDS011;8599;47.852;12.070;2023-06-14T09:01:26;6.23;;;3.50;;
16965;SDS011;8599;47.852;12.070;2023-06-14T09:03:53;4.10;;;3.10;;
16965;SDS011;8599;47.852;12.070;2023-06-14T09:06:22;5.43;;;3.67;;
16965;SDS011;8599;47.852;12.070;2023-06-14T09:08:51;5.10;;;2.87;;
16965;SDS011;8599;47.852;12.070;2023-06-14T09:11:19;6.07;;;3.40;;
16965;SDS011;8599;47.852;12.070;2023-06-14T09:13:47;4.70;;;2.80;;
16965;SDS011;8599;47.852;12.070;2023-06-14T09:16:15;3.53;;;2.47;;
16965;SDS011;8599;47.852;12.070;2023-06-14T09:18:43;3.23;;;2.37;;
16965;SDS011;8599;47.852;12.070;2023-06-14T09:21:12;7.20;;;2.72;;
16965;SDS011;8599;47.852;12.070;2023-06-14T09:23:41;5.20;;;2.43;;
16965;SDS011;8599;47.852;12.070;2023-06-14T09:26:11;4.68;;;2.78;;
16965;SDS011;8599;47.852;12.070;2023-06-14T09:28:41;4.35;;;2.40;;
16965;SDS011;8599;47.852;12.070;2023-06-14T09:31:09;5.27;;;2.67;;
16965;SDS011;8599;47.852;12.070;2023-06-14T09:33:37;4.15;;;2.75;;
16965;SDS011;8599;47.852;12.070;2023-06-14T09:36:04;7.60;;;2.97;;
16965;SDS011;8599;47.852;12.070;2023-06-14T09:38:37;6.88;;;2.83;;
16965;SDS011;8599;47.852;12.070;2023-06-14T09:41:06;5.38;;;2.38;;
16965;SDS011;8599;47.852;12.070;2023-06-14T09:43:34;3.28;;;2.60;;
16965;SDS011;8599;47.852;12.070;2023-06-14T09:46:03;4.82;;;2.40;;
16965;SDS011;8599;47.852;12.070;2023-06-14T09:48:30;4.00;;;2.60;;
16965;SDS011;8599;47.852;12.070;2023-06-14T09:50:57;3.25;;;2.60;;
16965;SDS011;8599;47.852;12.070;2023-06-14T09:53:25;5.72;;;2.40;;
16965;SDS011;8599;47.852;12.070;2023-06-14T09:55:53;5.60;;;2.70;;
16965;SDS011;8599;47.852;12.070;2023-06-14T09:58:23;3.08;;;2.40;;
16965;SDS011;8599;47.852;12.070;2023-06-14T10:00:54;2.50;;;2.20;;
16965;SDS011;8599;47.852;12.070;2023-06-14T10:03:24;7.22;;;2.53;;
16965;SDS011;8599;47.852;12.070;2023-06-14T10:05:54;7.30;;;2.65;;
16965;SDS011;8599;47.852;12.070;2023-06-14T10:08:26;3.03;;;2.47;;
16965;SDS011;8599;47.852;12.070;2023-06-14T10:10:57;3.30;;;2.13;;
16965;SDS011;8599;47.852;12.070;2023-06-14T10:13:25;6.72;;;2.60;;
16965;SDS011;8599;47.852;12.070;2023-06-14T10:15:55;3.97;;;2.28;;
16965;SDS011;8599;47.852;12.070;2023-06-14T10:18:28;4.82;;;2.67;;
16965;SDS011;8599;47.852;12.070;2023-06-14T10:21:03;4.25;;;2.60;;
16965;SDS011;8599;47.852;12.070;2023-06-14T10:23:35;5.80;;;2.50;;
16965;SDS011;8599;47.852;12.070;2023-06-14T10:26:06;6.22;;;2.42;;
16965;SDS011;8599;47.852;12.070;2023-06-14T10:28:33;3.73;;;2.70;;
16965;SDS011;8599;47.852;12.070;2023-06-14T10:31:08;4.53;;;2.50;;
16965;SDS011;8599;47.852;12.070;2023-06-14T10:33:36;3.33;;;2.83;;
16965;SDS011;8599;47.852;12.070;2023-06-14T10:36:25;3.55;;;2.53;;
16965;SDS011;8599;47.852;12.070;2023-06-14T10:38:59;3.97;;;2.65;;
16965;SDS011;8599;47.852;12.070;2023-06-14T10:41:30;4.03;;;2.45;;
16965;SDS011;8599;47.852;12.070;2023-06-14T10:47:01;3.78;;;2.80;;
16965;SDS011;8599;47.852;12.070;2023-06-14T10:49:37;5.75;;;2.53;;
16965;SDS011;8599;47.852;12.070;2023-06-14T10:52:09;4.55;;;2.78;;
16965;SDS011;8599;47.852;12.070;2023-06-14T10:54:55;4.15;;;2.80;;
16965;SDS011;8599;47.852;12.070;2023-06-14T10:57:41;3.45;;;2.60;;
16965;SDS011;8599;47.852;12.070;2023-06-14T11:00:11;4.45;;;2.60;;
16965;SDS011;8599;47.852;12.070;2023-06-14T11:05:51;3.40;;;2.00;;
16965;SDS011;8599;47.852;12.070;2023-06-14T11:11:25;3.53;;;2.47;;
16965;SDS011;8599;47.852;12.070;2023-06-14T11:13:57;3.65;;;2.70;;
16965;SDS011;8599;47.852;12.070;2023-06-14T11:16:26;4.95;;;2.55;;
16965;SDS011;8599;47.852;12.070;2023-06-14T11:18:54;4.97;;;2.63;;
16965;SDS011;8599;47.852;12.070;2023-06-14T11:21:23;2.60;;;2.40;;
16965;SDS011;8599;47.852;12.070;2023-06-14T11:23:56;4.78;;;2.83;;
16965;SDS011;8599;47.852;12.070;2023-06-14T11:26:26;3.47;;;2.40;;
16965;SDS011;8599;47.852;12.070;2023-06-14T11:28:56;3.90;;;2.22;;
16965;SDS011;8599;47.852;12.070;2023-06-14T11:31:24;6.13;;;3.28;;
16965;SDS011;8599;47.852;12.070;2023-06-14T11:33:53;5.80;;;2.80;;
16965;SDS011;8599;47.852;12.070;2023-06-14T11:36:20;3.75;;;2.58;;
16965;SDS011;8599;47.852;12.070;2023-06-14T11:38:48;4.75;;;2.95;;
16965;SDS011;8599;47.852;12.070;2023-06-14T11:41:16;2.08;;;1.98;;
16965;SDS011;8599;47.852;12.070;2023-06-14T11:43:42;5.93;;;2.63;;
16965;SDS011;8599;47.852;12.070;2023-06-14T11:46:13;3.45;;;2.30;;
16965;SDS011;8599;47.852;12.070;2023-06-14T11:48:42;3.70;;;2.75;;
16965;SDS011;8599;47.852;12.070;2023-06-14T11:51:10;3.67;;;2.75;;
16965;SDS011;8599;47.852;12.070;2023-06-14T11:53:37;3.10;;;2.63;;
16965;SDS011;8599;47.852;12.070;2023-06-14T11:56:05;4.10;;;2.50;;
16965;SDS011;8599;47.852;12.070;2023-06-14T11:58:33;2.60;;;2.22;;
16965;SDS011;8599;47.852;12.070;2023-06-14T12:01:00;6.25;;;2.63;;
16965;SDS011;8599;47.852;12.070;2023-06-14T12:03:28;3.70;;;2.80;;
16965;SDS011;8599;47.852;12.070;2023-06-14T12:06:03;5.70;;;2.67;;
16965;SDS011;8599;47.852;12.070;2023-06-14T12:08:32;3.55;;;2.67;;
16965;SDS011;8599;47.852;12.070;2023-06-14T12:11:03;3.13;;;2.20;;
16965;SDS011;8599;47.852;12.070;2023-06-14T12:13:33;2.85;;;2.25;;
16965;SDS011;8599;47.852;12.070;2023-06-14T12:16:01;3.38;;;2.60;;
16965;SDS011;8599;47.852;12.070;2023-06-14T12:18:32;3.25;;;2.83;;
16965;SDS011;8599;47.852;12.070;2023-06-14T12:21:00;3.15;;;2.53;;
16965;SDS011;8599;47.852;12.070;2023-06-14T12:23:38;2.97;;;2.53;;
16965;SDS011;8599;47.852;12.070;2023-06-14T12:26:07;5.03;;;2.70;;
16965;SDS011;8599;47.852;12.070;2023-06-14T12:28:33;3.78;;;2.70;;
16965;SDS011;8599;47.852;12.070;2023-06-14T12:31:00;3.05;;;2.50;;
16965;SDS011;8599;47.852;12.070;2023-06-14T12:33:28;22.58;;;2.90;;
16965;SDS011;8599;47.852;12.070;2023-06-14T12:35:55;5.15;;;2.83;;
16965;SDS011;8599;47.852;12.070;2023-06-14T12:38:22;4.55;;;2.45;;
16965;SDS011;8599;47.852;12.070;2023-06-14T12:40:49;5.47;;;2.88;;
16965;SDS011;8599;47.852;12.070;2023-06-14T12:43:18;3.75;;;2.72;;
16965;SDS011;8599;47.852;12.070;2023-06-14T12:45:45;2.92;;;2.63;;
16965;SDS011;8599;47.852;12.070;2023-06-14T12:48:12;4.32;;;2.80;;
16965;SDS011;8599;47.852;12.070;2023-06-14T12:50:40;3.13;;;2.17;;
16965;SDS011;8599;47.852;12.070;2023-06-14T12:53:07;5.18;;;2.70;;
16965;SDS011;8599;47.852;12.070;2023-06-14T12:55:34;3.35;;;2.70;;
16965;SDS011;8599;47.852;12.070;2023-06-14T12:58:00;3.47;;;2.78;;
16965;SDS011;8599;47.852;12.070;2023-06-14T13:00:29;11.15;;;2.70;;
16965;SDS011;8599;47.852;12.070;2023-06-14T13:02:56;3.17;;;2.78;;
16965;SDS011;8599;47.852;12.070;2023-06-14T13:05:23;10.07;;;2.67;;
16965;SDS011;8599;47.852;12.070;2023-06-14T13:07:50;2.95;;;2.63;;
16965;SDS011;8599;47.852;12.070;2023-06-14T13:10:17;3.45;;;2.45;;
16965;SDS011;8599;47.852;12.070;2023-06-14T13:12:44;4.47;;;2.55;;
16965;SDS011;8599;47.852;12.070;2023-06-14T13:15:11;4.60;;;2.67;;
16965;SDS011;8599;47.852;12.070;2023-06-14T13:17:39;4.10;;;2.80;;
16965;SDS011;8599;47.852;12.070;2023-06-14T13:20:07;4.20;;;2.60;;
16965;SDS011;8599;47.852;12.070;2023-06-14T13:22:34;2.78;;;2.45;;
16965;SDS011;8599;47.852;12.070;2023-06-14T13:25:01;4.80;;;2.40;;
16965;SDS011;8599;47.852;12.070;2023-06-14T13:27:29;2.85;;;2.20;;
16965;SDS011;8599;47.852;12.070;2023-06-14T13:29:56;7.88;;;2.80;;
16965;SDS011;8599;47.852;12.070;2023-06-14T13:32:23;4.60;;;2.53;;
16965;SDS011;8599;47.852;12.070;2023-06-14T13:34:51;6.18;;;3.50;;
16965;SDS011;8599;47.852;12.070;2023-06-14T13:37:18;3.95;;;2.55;;
16965;SDS011;8599;47.852;12.070;2023-06-14T13:39:45;2.97;;;2.67;;
16965;SDS011;8599;47.852;12.070;2023-06-14T13:42:12;6.82;;;3.08;;
16965;SDS011;8599;47.852;12.070;2023-06-14T13:44:38;4.90;;;2.70;;
16965;SDS011;8599;47.852;12.070;2023-06-14T13:47:05;6.32;;;3.10;;
16965;SDS011;8599;47.852;12.070;2023-06-14T13:49:32;5.13;;;2.55;;
16965;SDS011;8599;47.852;12.070;2023-06-14T13:52:02;4.18;;;2.90;;
16965;SDS011;8599;47.852;12.070;2023-06-14T13:54:29;3.42;;;2.58;;
16965;SDS011;8599;47.852;12.070;2023-06-14T13:56:55;4.22;;;3.30;;
16965;SDS011;8599;47.852;12.070;2023-06-14T13:59:22;3.25;;;2.63;;
16965;SDS011;8599;47.852;12.070;2023-06-14T14:01:49;4.13;;;2.58;;
16965;SDS011;8599;47.852;12.070;2023-06-14T14:04:16;3.05;;;2.67;;
16965;SDS011;8599;47.852;12.070;2023-06-14T14:06:43;2.90;;;2.55;;
16965;SDS011;8599;47.852;12.070;2023-06-14T14:09:11;3.95;;;3.00;;
16965;SDS011;8599;47.852;12.070;2023-06-14T14:11:39;2.83;;;2.10;;
16965;SDS011;8599;47.852;12.070;2023-06-14T14:14:07;2.92;;;2.38;;
16965;SDS011;8599;47.852;12.070;2023-06-14T14:16:35;4.82;;;2.45;;
16965;SDS011;8599;47.852;12.070;2023-06-14T14:19:02;2.95;;;2.55;;
16965;SDS011;8599;47.852;12.070;2023-06-14T14:21:28;3.53;;;2.75;;
16965;SDS011;8599;47.852;12.070;2023-06-14T14:23:55;2.55;;;2.35;;
16965;SDS011;8599;47.852;12.070;2023-06-14T14:26:23;4.35;;;2.60;;
16965;SDS011;8599;47.852;12.070;2023-06-14T14:28:50;3.47;;;2.55;;
16965;SDS011;8599;47.852;12.070;2023-06-14T14:31:17;4.20;;;2.45;;
16965;SDS011;8599;47.852;12.070;2023-06-14T14:33:44;4.97;;;2.60;;
16965;SDS011;8599;47.852;12.070;2023-06-14T14:36:11;5.50;;;2.53;;
16965;SDS011;8599;47.852;12.070;2023-06-14T14:38:38;5.70;;;2.70;;
16965;SDS011;8599;47.852;12.070;2023-06-14T14:41:05;3.60;;;2.45;;
16965;SDS011;8599;47.852;12.070;2023-06-14T14:43:33;3.53;;;2.63;;
16965;SDS011;8599;47.852;12.070;2023-06-14T14:46:00;3.00;;;2.58;;
16965;SDS011;8599;47.852;12.070;2023-06-14T14:48:27;3.38;;;2.50;;
16965;SDS011;8599;47.852;12.070;2023-06-14T14:50:54;3.90;;;2.33;;
16965;SDS011;8599;47.852;12.070;2023-06-14T14:53:21;4.25;;;2.45;;
16965;SDS011;8599;47.852;12.070;2023-06-14T14:55:48;2.88;;;2.40;;
16965;SDS011;8599;47.852;12.070;2023-06-14T14:58:15;3.03;;;2.65;;
16965;SDS011;8599;47.852;12.070;2023-06-14T15:00:44;2.80;;;2.33;;
16965;SDS011;8599;47.852;12.070;2023-06-14T15:03:11;2.42;;;2.22;;